createdAt,value
2018-10-09T00:03:52.073Z,11.29
2018-10-09T00:09:47.081Z,11.07
2018-10-09T00:15:42.098Z,9.28
2018-10-09T00:21:37.101Z,7.09
2018-10-09T00:27:32.109Z,8.34
2018-10-09T00:33:27.107Z,10.76
2018-10-09T00:39:22.170Z,11.33
2018-10-09T00:45:17.140Z,9.06
2018-10-09T00:51:12.135Z,9.65
2018-10-09T00:57:07.166Z,5.83
2018-10-09T01:03:02.156Z,6.09
2018-10-09T01:08:57.172Z,5.84
2018-10-09T01:14:52.126Z,7.35
2018-10-09T01:20:47.174Z,7.48
2018-10-09T01:26:42.235Z,7.59
2018-10-09T01:32:37.155Z,7.71
2018-10-09T01:38:32.169Z,9.07
2018-10-09T01:44:27.178Z,8.85
2018-10-09T01:50:22.148Z,9.31
2018-10-09T01:56:17.189Z,11.02
2018-10-09T02:02:12.155Z,11.77
2018-10-09T02:08:07.169Z,11.24
2018-10-09T02:14:02.225Z,12.02
2018-10-09T02:19:57.196Z,9.64
2018-10-09T02:25:52.183Z,8.95
2018-10-09T02:31:47.185Z,7.34
2018-10-09T02:37:42.184Z,7.63
2018-10-09T02:43:37.179Z,9.42
2018-10-09T02:49:32.234Z,11.49
2018-10-09T02:55:27.218Z,11.06
2018-10-09T03:01:22.196Z,11.64
2018-10-09T03:07:17.192Z,11.07
2018-10-09T03:13:12.196Z,11.5
2018-10-09T03:19:07.244Z,13.11
2018-10-09T03:25:02.223Z,14.09
2018-10-09T03:30:57.245Z,18.27
2018-10-09T03:36:52.246Z,14.1
2018-10-09T03:42:47.240Z,12.55
2018-10-09T03:48:42.249Z,11.62
2018-10-09T03:54:37.241Z,13.55
2018-10-09T04:00:32.257Z,10.91
2018-10-09T04:06:27.266Z,14.29
2018-10-09T04:12:22.265Z,9.85
2018-10-09T04:18:17.241Z,9.56
2018-10-09T04:24:12.260Z,8.32
2018-10-09T04:30:07.256Z,8.72
2018-10-09T04:36:02.245Z,8.27
2018-10-09T04:41:57.310Z,9.05
2018-10-09T04:47:52.262Z,7.66
2018-10-09T04:53:47.279Z,6.9
2018-10-09T04:59:42.270Z,8.37
2018-10-09T05:05:37.286Z,6.01
2018-10-09T05:11:32.307Z,7.53
2018-10-09T05:17:27.281Z,8.52
2018-10-09T05:23:22.356Z,9.16
2018-10-09T05:29:17.305Z,10.82
2018-10-09T05:35:12.275Z,9.93
2018-10-09T05:41:07.300Z,10.41
2018-10-09T05:47:02.294Z,11.19
2018-10-09T05:52:57.310Z,8.2
2018-10-09T05:58:52.421Z,7.3
2018-10-09T06:04:47.337Z,7.98
2018-10-09T06:10:42.347Z,8.81
2018-10-09T06:16:37.330Z,11.1
2018-10-09T06:22:32.349Z,12.61
2018-10-09T06:28:27.388Z,14
2018-10-09T06:34:22.395Z,27.52
2018-10-09T06:40:17.346Z,24.96
2018-10-09T06:46:12.372Z,25.09
2018-10-09T06:52:07.357Z,23.04
2018-10-09T06:58:02.355Z,21.71
2018-10-09T07:03:57.379Z,20.32
2018-10-09T07:09:52.444Z,20.9
2018-10-09T07:15:47.377Z,19.92
2018-10-09T07:21:42.377Z,18.81
2018-10-09T07:27:37.414Z,18.69
2018-10-09T07:33:32.383Z,18.57
2018-10-09T07:39:27.384Z,20.36
2018-10-09T07:45:22.431Z,20.16
2018-10-09T07:51:17.436Z,21.25
2018-10-09T07:57:12.390Z,21.23
2018-10-09T08:03:07.406Z,24.9
2018-10-09T08:09:02.406Z,24.76
2018-10-09T08:14:57.406Z,21.34
2018-10-09T08:20:52.409Z,18.2
2018-10-09T08:26:47.452Z,17.45
2018-10-09T08:32:42.415Z,15.57
2018-10-09T08:38:37.417Z,12.75
2018-10-09T08:44:32.414Z,13.35
2018-10-09T08:50:27.449Z,9.12
2018-10-09T08:56:22.433Z,7.2
2018-10-09T09:02:17.453Z,5.08
2018-10-09T09:08:12.476Z,4.09
2018-10-09T09:14:07.567Z,4.45
2018-10-09T09:20:02.455Z,4.19
2018-10-09T09:25:57.493Z,3.98
2018-10-09T09:31:52.462Z,4.38
2018-10-09T09:37:47.475Z,4.03
2018-10-09T09:43:42.475Z,4.04
2018-10-09T09:49:37.480Z,4.2
2018-10-09T09:55:32.484Z,3.86
2018-10-09T10:01:27.488Z,3.72
2018-10-09T10:07:22.479Z,3.96
2018-10-09T10:13:17.490Z,3.65
2018-10-09T10:19:12.564Z,4.32
2018-10-09T10:25:07.498Z,4.08
2018-10-09T10:31:02.524Z,3.78
2018-10-09T10:36:57.494Z,3.03
2018-10-09T10:42:52.575Z,3.33
2018-10-09T10:48:47.527Z,3.47
2018-10-09T10:54:42.564Z,2.85
2018-10-09T11:00:37.534Z,3.05
2018-10-09T11:06:32.520Z,3.43
2018-10-09T11:12:27.563Z,3.53
2018-10-09T11:18:22.556Z,3.32
2018-10-09T11:24:17.547Z,3.37
2018-10-09T11:30:12.636Z,3.08
2018-10-09T11:36:07.570Z,2.98
2018-10-09T11:42:02.573Z,3.28
2018-10-09T11:47:57.573Z,3.24
2018-10-09T11:53:52.586Z,3.47
2018-10-09T11:59:47.595Z,3.61
2018-10-09T12:05:42.647Z,3.48
2018-10-09T12:11:37.586Z,3.75
2018-10-09T12:17:32.629Z,3.9
2018-10-09T12:23:27.583Z,3.74
2018-10-09T12:29:22.642Z,4.23
2018-10-09T12:35:17.610Z,3.89
2018-10-09T12:41:12.619Z,3.94
2018-10-09T12:47:07.699Z,4.63
2018-10-09T12:53:02.673Z,4.57
2018-10-09T12:58:57.670Z,4.61
2018-10-09T13:04:52.625Z,4.23
2018-10-09T13:10:47.673Z,4.58
2018-10-09T13:16:42.638Z,4.62
2018-10-09T13:22:37.661Z,4.49
2018-10-09T13:28:32.647Z,4.47
2018-10-09T13:34:27.703Z,4.83
2018-10-09T13:40:22.669Z,5.34
2018-10-09T13:46:17.642Z,5.01
2018-10-09T13:52:12.713Z,4.51
2018-10-09T13:58:07.669Z,5.31
2018-10-09T14:04:02.699Z,4.93
2018-10-09T14:09:57.714Z,4.54
2018-10-09T14:15:52.672Z,4.27
2018-10-09T14:21:47.682Z,4.42
2018-10-09T14:27:42.695Z,4.97
2018-10-09T14:33:37.682Z,5.27
2018-10-09T14:39:32.683Z,5.42
2018-10-09T14:45:27.719Z,5.1
2018-10-09T14:51:22.721Z,4.93
2018-10-09T14:57:17.775Z,5.39
2018-10-09T15:03:12.734Z,5.12
2018-10-09T15:09:07.716Z,5.36
2018-10-09T15:15:02.702Z,6.11
2018-10-09T15:20:57.724Z,5.89
2018-10-09T15:26:52.743Z,6.3
2018-10-09T15:32:47.735Z,6.03
2018-10-09T15:38:42.760Z,5.88
2018-10-09T15:44:37.733Z,7.46
2018-10-09T15:50:32.758Z,5.64
2018-10-09T15:56:27.787Z,6.04
2018-10-09T16:02:22.750Z,6.45
2018-10-09T16:08:17.759Z,6.59
2018-10-09T16:14:12.800Z,7.52
2018-10-09T16:20:07.785Z,7.01
2018-10-09T16:26:02.774Z,7.15
2018-10-09T16:31:57.777Z,7.17
2018-10-09T16:37:52.799Z,6.93
2018-10-09T16:43:47.852Z,7.47
2018-10-09T16:49:42.787Z,7.18
2018-10-09T16:55:37.823Z,7.19
2018-10-09T17:01:32.883Z,6.74
2018-10-09T17:07:27.813Z,6.74
2018-10-09T17:13:22.820Z,6.91
2018-10-09T17:19:17.834Z,7.66
2018-10-09T17:25:12.815Z,7.66
2018-10-09T17:31:07.836Z,7.45
2018-10-09T17:37:02.856Z,7.8
2018-10-09T17:42:57.826Z,8.08
2018-10-09T17:48:52.890Z,8.93
2018-10-09T17:54:47.905Z,7.91
2018-10-09T18:00:42.831Z,8.52
2018-10-09T18:06:37.871Z,9.46
2018-10-09T18:12:32.858Z,9.5
2018-10-09T18:18:27.830Z,9.89
2018-10-09T18:24:22.869Z,10.4
2018-10-09T18:30:17.864Z,8.93
2018-10-09T18:36:12.880Z,9.34
2018-10-09T18:42:08.000Z,9.56
2018-10-09T18:48:02.893Z,9.13
2018-10-09T18:53:57.906Z,8.39
2018-10-09T18:59:52.893Z,9.68
2018-10-09T19:05:47.920Z,11.4
2018-10-09T19:11:42.897Z,10.93
2018-10-09T19:17:37.903Z,12.14
2018-10-09T19:23:32.900Z,11.34
2018-10-09T19:29:27.924Z,11.59
2018-10-09T19:35:22.953Z,12.44
2018-10-09T19:41:17.919Z,12.14
2018-10-09T19:47:12.929Z,10.44
2018-10-09T19:53:07.935Z,12.21
2018-10-09T19:59:02.921Z,12.21
2018-10-09T20:04:57.963Z,12.36
2018-10-09T20:10:52.945Z,11.93
2018-10-09T20:16:47.929Z,12.67
2018-10-09T20:22:42.940Z,12.25
2018-10-09T20:28:37.924Z,12.63
2018-10-09T20:34:32.945Z,12.82
2018-10-09T20:40:27.956Z,12.21
2018-10-09T20:46:22.984Z,12.82
2018-10-09T20:52:17.942Z,13.19
2018-10-09T20:58:12.955Z,13.43
2018-10-09T21:04:07.964Z,12.68
2018-10-09T21:10:02.964Z,13.78
2018-10-09T21:15:57.972Z,13.52
2018-10-09T21:21:52.994Z,13.15
2018-10-09T21:27:47.974Z,12.4
2018-10-09T21:33:43.001Z,14.27
2018-10-09T21:39:37.983Z,14.17
2018-10-09T21:45:33.035Z,15.51
2018-10-09T21:51:28.052Z,14.23
2018-10-09T21:57:23.009Z,14.16
2018-10-09T22:03:18.009Z,14.81
2018-10-09T22:09:13.012Z,15.35
2018-10-09T22:15:08.129Z,15.25
2018-10-09T22:21:03.062Z,14.6
2018-10-09T22:26:58.055Z,16.5
2018-10-09T22:32:53.035Z,14.93
2018-10-09T22:38:48.018Z,14.92
2018-10-09T22:44:43.059Z,15.94
2018-10-09T22:50:38.047Z,15.59
2018-10-09T22:56:33.052Z,15.32
2018-10-09T23:02:28.080Z,15.27
2018-10-09T23:08:23.114Z,15.97
2018-10-09T23:14:18.039Z,16.34
2018-10-09T23:20:13.100Z,17.47
2018-10-09T23:26:08.037Z,16.74
2018-10-09T23:32:03.072Z,16.16
2018-10-09T23:37:58.061Z,17.43
2018-10-09T23:43:53.073Z,15.67
2018-10-09T23:49:48.100Z,15.5
2018-10-09T23:55:43.141Z,16.17
